sensor_id;sensor_type;location;lat;lon;timestamp;P1;durP1;ratioP1;P2;durP2;ratioP2
45039;SDS011;30778;53.574;7.770;2024-02-14T00:02:40;5.40;;;1.35;;
45039;SDS011;30778;53.574;7.770;2024-02-14T00:05:10;3.25;;;1.33;;
45039;SDS011;30778;53.574;7.770;2024-02-14T00:07:36;4.15;;;1.98;;
45039;SDS011;30778;53.574;7.770;2024-02-14T00:10:02;3.67;;;1.48;;
45039;SDS011;30778;53.574;7.770;2024-02-14T00:12:31;3.47;;;1.50;;
45039;SDS011;30778;53.574;7.770;2024-02-14T00:14:57;6.88;;;1.45;;
45039;SDS011;30778;53.574;7.770;2024-02-14T00:17:23;5.40;;;1.63;;
45039;SDS011;30778;53.574;7.770;2024-02-14T00:19:48;6.88;;;1.60;;
45039;SDS011;30778;53.574;7.770;2024-02-14T00:22:14;3.85;;;1.95;;
45039;SDS011;30778;53.574;7.770;2024-02-14T00:24:39;10.30;;;2.58;;
45039;SDS011;30778;53.574;7.770;2024-02-14T00:27:05;4.63;;;2.10;;
45039;SDS011;30778;53.574;7.770;2024-02-14T00:29:31;6.35;;;2.58;;
45039;SDS011;30778;53.574;7.770;2024-02-14T00:31:59;7.25;;;2.72;;
45039;SDS011;30778;53.574;7.770;2024-02-14T00:34:26;5.75;;;2.78;;
45039;SDS011;30778;53.574;7.770;2024-02-14T00:36:52;5.68;;;2.20;;
45039;SDS011;30778;53.574;7.770;2024-02-14T00:39:17;6.03;;;2.63;;
45039;SDS011;30778;53.574;7.770;2024-02-14T00:41:45;5.97;;;2.90;;
45039;SDS011;30778;53.574;7.770;2024-02-14T00:44:12;6.72;;;3.22;;
45039;SDS011;30778;53.574;7.770;2024-02-14T00:46:38;6.00;;;3.10;;
45039;SDS011;30778;53.574;7.770;2024-02-14T00:49:04;9.13;;;2.90;;
45039;SDS011;30778;53.574;7.770;2024-02-14T00:51:29;3.33;;;2.42;;
45039;SDS011;30778;53.574;7.770;2024-02-14T00:53:56;7.22;;;3.17;;
45039;SDS011;30778;53.574;7.770;2024-02-14T00:56:21;7.45;;;3.67;;
45039;SDS011;30778;53.574;7.770;2024-02-14T00:58:49;5.63;;;3.42;;
45039;SDS011;30778;53.574;7.770;2024-02-14T01:01:16;8.30;;;3.55;;
45039;SDS011;30778;53.574;7.770;2024-02-14T01:03:44;8.38;;;3.72;;
45039;SDS011;30778;53.574;7.770;2024-02-14T01:06:11;6.32;;;3.38;;
45039;SDS011;30778;53.574;7.770;2024-02-14T01:08:41;7.80;;;4.15;;
45039;SDS011;30778;53.574;7.770;2024-02-14T01:11:08;5.53;;;3.15;;
45039;SDS011;30778;53.574;7.770;2024-02-14T01:13:38;9.35;;;4.13;;
45039;SDS011;30778;53.574;7.770;2024-02-14T01:16:03;9.15;;;4.07;;
45039;SDS011;30778;53.574;7.770;2024-02-14T01:18:29;12.25;;;4.15;;
45039;SDS011;30778;53.574;7.770;2024-02-14T01:20:55;9.40;;;5.03;;
45039;SDS011;30778;53.574;7.770;2024-02-14T01:23:21;5.25;;;4.28;;
45039;SDS011;30778;53.574;7.770;2024-02-14T01:25:47;7.10;;;4.20;;
45039;SDS011;30778;53.574;7.770;2024-02-14T01:28:14;9.80;;;5.07;;
45039;SDS011;30778;53.574;7.770;2024-02-14T01:30:39;9.20;;;5.00;;
45039;SDS011;30778;53.574;7.770;2024-02-14T01:33:06;11.25;;;5.05;;
45039;SDS011;30778;53.574;7.770;2024-02-14T01:35:31;6.47;;;4.70;;
45039;SDS011;30778;53.574;7.770;2024-02-14T01:37:57;11.60;;;4.50;;
45039;SDS011;30778;53.574;7.770;2024-02-14T01:40:22;8.63;;;4.68;;
45039;SDS011;30778;53.574;7.770;2024-02-14T01:42:48;8.23;;;5.30;;
45039;SDS011;30778;53.574;7.770;2024-02-14T01:45:14;7.78;;;5.47;;
45039;SDS011;30778;53.574;7.770;2024-02-14T01:47:40;10.35;;;5.25;;
45039;SDS011;30778;53.574;7.770;2024-02-14T01:50:07;12.05;;;5.95;;
45039;SDS011;30778;53.574;7.770;2024-02-14T01:52:39;10.90;;;7.10;;
45039;SDS011;30778;53.574;7.770;2024-02-14T01:55:06;12.45;;;5.80;;
45039;SDS011;30778;53.574;7.770;2024-02-14T01:57:33;11.45;;;6.60;;
45039;SDS011;30778;53.574;7.770;2024-02-14T02:00:00;9.98;;;6.25;;
45039;SDS011;30778;53.574;7.770;2024-02-14T02:02:37;9.73;;;6.95;;
45039;SDS011;30778;53.574;7.770;2024-02-14T02:05:06;9.90;;;7.07;;
45039;SDS011;30778;53.574;7.770;2024-02-14T02:07:32;11.65;;;6.80;;
45039;SDS011;30778;53.574;7.770;2024-02-14T02:10:01;11.18;;;6.68;;
45039;SDS011;30778;53.574;7.770;2024-02-14T02:12:50;13.50;;;6.68;;
45039;SDS011;30778;53.574;7.770;2024-02-14T02:15:17;11.65;;;6.82;;
45039;SDS011;30778;53.574;7.770;2024-02-14T02:17:43;13.82;;;6.95;;
45039;SDS011;30778;53.574;7.770;2024-02-14T02:20:11;14.27;;;8.07;;
45039;SDS011;30778;53.574;7.770;2024-02-14T02:22:42;11.18;;;7.18;;
45039;SDS011;30778;53.574;7.770;2024-02-14T02:25:13;13.68;;;8.07;;
45039;SDS011;30778;53.574;7.770;2024-02-14T02:27:40;11.60;;;8.48;;
45039;SDS011;30778;53.574;7.770;2024-02-14T02:30:07;11.43;;;7.93;;
45039;SDS011;30778;53.574;7.770;2024-02-14T02:32:38;10.68;;;7.45;;
45039;SDS011;30778;53.574;7.770;2024-02-14T02:35:04;13.02;;;8.07;;
45039;SDS011;30778;53.574;7.770;2024-02-14T02:37:30;12.77;;;9.15;;
45039;SDS011;30778;53.574;7.770;2024-02-14T02:39:56;14.40;;;8.13;;
45039;SDS011;30778;53.574;7.770;2024-02-14T02:42:22;12.10;;;8.23;;
45039;SDS011;30778;53.574;7.770;2024-02-14T02:44:49;13.73;;;8.02;;
45039;SDS011;30778;53.574;7.770;2024-02-14T02:47:15;13.57;;;9.23;;
45039;SDS011;30778;53.574;7.770;2024-02-14T02:49:42;12.60;;;7.75;;
45039;SDS011;30778;53.574;7.770;2024-02-14T02:52:09;14.68;;;8.82;;
45039;SDS011;30778;53.574;7.770;2024-02-14T02:54:36;15.10;;;8.68;;
45039;SDS011;30778;53.574;7.770;2024-02-14T02:57:01;11.82;;;7.78;;
45039;SDS011;30778;53.574;7.770;2024-02-14T02:59:28;13.77;;;8.30;;
45039;SDS011;30778;53.574;7.770;2024-02-14T03:01:54;14.25;;;8.43;;
45039;SDS011;30778;53.574;7.770;2024-02-14T03:04:20;15.75;;;7.72;;
45039;SDS011;30778;53.574;7.770;2024-02-14T03:06:46;13.38;;;8.23;;
45039;SDS011;30778;53.574;7.770;2024-02-14T03:09:11;11.65;;;7.25;;
45039;SDS011;30778;53.574;7.770;2024-02-14T03:11:38;14.18;;;8.43;;
45039;SDS011;30778;53.574;7.770;2024-02-14T03:14:04;11.63;;;8.70;;
45039;SDS011;30778;53.574;7.770;2024-02-14T03:16:30;14.15;;;8.27;;
45039;SDS011;30778;53.574;7.770;2024-02-14T03:18:56;12.95;;;8.57;;
45039;SDS011;30778;53.574;7.770;2024-02-14T03:21:21;13.57;;;8.00;;
45039;SDS011;30778;53.574;7.770;2024-02-14T03:23:47;11.52;;;7.82;;
45039;SDS011;30778;53.574;7.770;2024-02-14T03:26:13;13.50;;;7.35;;
45039;SDS011;30778;53.574;7.770;2024-02-14T03:28:39;13.15;;;9.27;;
45039;SDS011;30778;53.574;7.770;2024-02-14T03:31:05;11.65;;;7.72;;
45039;SDS011;30778;53.574;7.770;2024-02-14T03:33:31;11.98;;;7.85;;
45039;SDS011;30778;53.574;7.770;2024-02-14T03:35:57;10.88;;;7.45;;
45039;SDS011;30778;53.574;7.770;2024-02-14T03:38:26;10.02;;;6.78;;
45039;SDS011;30778;53.574;7.770;2024-02-14T03:40:53;10.90;;;7.85;;
45039;SDS011;30778;53.574;7.770;2024-02-14T03:43:19;10.82;;;6.63;;
45039;SDS011;30778;53.574;7.770;2024-02-14T03:45:46;13.05;;;7.88;;
45039;SDS011;30778;53.574;7.770;2024-02-14T03:48:13;13.25;;;8.43;;
45039;SDS011;30778;53.574;7.770;2024-02-14T03:50:44;10.95;;;7.40;;
45039;SDS011;30778;53.574;7.770;2024-02-14T03:53:11;10.45;;;6.40;;
45039;SDS011;30778;53.574;7.770;2024-02-14T03:55:38;12.25;;;7.25;;
45039;SDS011;30778;53.574;7.770;2024-02-14T03:58:05;11.05;;;7.70;;
45039;SDS011;30778;53.574;7.770;2024-02-14T04:00:34;10.68;;;7.40;;
45039;SDS011;30778;53.574;7.770;2024-02-14T04:03:00;11.35;;;7.50;;
45039;SDS011;30778;53.574;7.770;2024-02-14T04:05:27;9.88;;;7.28;;
45039;SDS011;30778;53.574;7.770;2024-02-14T04:07:54;9.32;;;6.78;;
45039;SDS011;30778;53.574;7.770;2024-02-14T04:10:21;9.48;;;6.43;;
45039;SDS011;30778;53.574;7.770;2024-02-14T04:12:47;11.90;;;7.47;;
45039;SDS011;30778;53.574;7.770;2024-02-14T04:15:13;8.60;;;6.40;;
45039;SDS011;30778;53.574;7.770;2024-02-14T04:17:41;9.05;;;6.22;;
45039;SDS011;30778;53.574;7.770;2024-02-14T04:20:07;10.40;;;7.25;;
45039;SDS011;30778;53.574;7.770;2024-02-14T04:22:33;10.75;;;6.63;;
45039;SDS011;30778;53.574;7.770;2024-02-14T04:24:58;8.07;;;6.47;;
45039;SDS011;30778;53.574;7.770;2024-02-14T04:27:24;9.15;;;6.97;;
45039;SDS011;30778;53.574;7.770;2024-02-14T04:29:50;10.55;;;6.30;;
45039;SDS011;30778;53.574;7.770;2024-02-14T04:32:15;9.15;;;6.85;;
45039;SDS011;30778;53.574;7.770;2024-02-14T04:34:40;9.38;;;6.32;;
45039;SDS011;30778;53.574;7.770;2024-02-14T04:37:07;8.13;;;5.78;;
45039;SDS011;30778;53.574;7.770;2024-02-14T04:39:38;12.20;;;7.00;;
45039;SDS011;30778;53.574;7.770;2024-02-14T04:42:04;10.15;;;7.20;;
45039;SDS011;30778;53.574;7.770;2024-02-14T04:44:30;8.93;;;6.03;;
45039;SDS011;30778;53.574;7.770;2024-02-14T04:47:00;10.27;;;7.93;;
45039;SDS011;30778;53.574;7.770;2024-02-14T04:49:25;9.80;;;5.65;;
45039;SDS011;30778;53.574;7.770;2024-02-14T04:51:54;9.98;;;6.72;;
45039;SDS011;30778;53.574;7.770;2024-02-14T04:54:20;8.48;;;6.07;;
45039;SDS011;30778;53.574;7.770;2024-02-14T04:56:46;8.88;;;5.95;;
45039;SDS011;30778;53.574;7.770;2024-02-14T04:59:12;9.15;;;6.25;;
45039;SDS011;30778;53.574;7.770;2024-02-14T05:01:41;7.22;;;5.95;;
45039;SDS011;30778;53.574;7.770;2024-02-14T05:04:08;8.75;;;6.88;;
45039;SDS011;30778;53.574;7.770;2024-02-14T05:06:36;11.20;;;6.10;;
45039;SDS011;30778;53.574;7.770;2024-02-14T05:09:05;10.02;;;6.53;;
45039;SDS011;30778;53.574;7.770;2024-02-14T05:11:32;7.95;;;5.40;;
45039;SDS011;30778;53.574;7.770;2024-02-14T05:13:58;9.05;;;5.68;;
45039;SDS011;30778;53.574;7.770;2024-02-14T05:16:23;7.80;;;5.88;;
45039;SDS011;30778;53.574;7.770;2024-02-14T05:18:49;8.90;;;6.55;;
45039;SDS011;30778;53.574;7.770;2024-02-14T05:21:15;8.80;;;5.53;;
45039;SDS011;30778;53.574;7.770;2024-02-14T05:23:42;7.80;;;5.05;;
45039;SDS011;30778;53.574;7.770;2024-02-14T05:26:08;7.72;;;5.28;;
45039;SDS011;30778;53.574;7.770;2024-02-14T05:28:33;8.77;;;6.15;;
45039;SDS011;30778;53.574;7.770;2024-02-14T05:30:59;8.60;;;5.90;;
45039;SDS011;30778;53.574;7.770;2024-02-14T05:33:25;7.10;;;5.00;;
45039;SDS011;30778;53.574;7.770;2024-02-14T05:35:51;5.75;;;4.38;;
45039;SDS011;30778;53.574;7.770;2024-02-14T05:38:17;7.13;;;4.95;;
45039;SDS011;30778;53.574;7.770;2024-02-14T05:40:47;7.03;;;5.10;;
45039;SDS011;30778;53.574;7.770;2024-02-14T05:43:16;7.22;;;4.70;;
45039;SDS011;30778;53.574;7.770;2024-02-14T05:45:44;6.47;;;5.30;;
45039;SDS011;30778;53.574;7.770;2024-02-14T05:48:10;8.75;;;6.07;;
45039;SDS011;30778;53.574;7.770;2024-02-14T05:50:35;6.20;;;4.78;;
45039;SDS011;30778;53.574;7.770;2024-02-14T05:53:01;7.68;;;5.03;;
45039;SDS011;30778;53.574;7.770;2024-02-14T05:55:28;6.18;;;4.43;;
45039;SDS011;30778;53.574;7.770;2024-02-14T05:57:53;8.98;;;4.72;;
45039;SDS011;30778;53.574;7.770;2024-02-14T06:00:19;6.75;;;4.85;;
45039;SDS011;30778;53.574;7.770;2024-02-14T06:02:46;7.82;;;4.85;;
45039;SDS011;30778;53.574;7.770;2024-02-14T06:05:12;7.50;;;5.45;;
45039;SDS011;30778;53.574;7.770;2024-02-14T06:07:41;6.95;;;4.88;;
45039;SDS011;30778;53.574;7.770;2024-02-14T06:10:08;7.22;;;4.68;;
45039;SDS011;30778;53.574;7.770;2024-02-14T06:12:36;5.45;;;4.53;;
45039;SDS011;30778;53.574;7.770;2024-02-14T06:15:05;7.40;;;4.28;;
45039;SDS011;30778;53.574;7.770;2024-02-14T06:17:34;6.10;;;4.10;;
45039;SDS011;30778;53.574;7.770;2024-02-14T06:20:03;5.18;;;3.47;;
45039;SDS011;30778;53.574;7.770;2024-02-14T06:22:33;5.22;;;4.03;;
45039;SDS011;30778;53.574;7.770;2024-02-14T06:25:01;5.63;;;3.63;;
45039;SDS011;30778;53.574;7.770;2024-02-14T06:27:29;3.03;;;2.40;;
45039;SDS011;30778;53.574;7.770;2024-02-14T06:29:55;4.80;;;3.05;;
45039;SDS011;30778;53.574;7.770;2024-02-14T06:32:22;4.18;;;3.30;;
45039;SDS011;30778;53.574;7.770;2024-02-14T06:34:47;4.45;;;3.40;;
45039;SDS011;30778;53.574;7.770;2024-02-14T06:37:13;5.55;;;3.35;;
45039;SDS011;30778;53.574;7.770;2024-02-14T06:39:38;3.42;;;2.85;;
45039;SDS011;30778;53.574;7.770;2024-02-14T06:42:04;3.88;;;2.90;;
45039;SDS011;30778;53.574;7.770;2024-02-14T06:44:29;5.70;;;2.97;;
45039;SDS011;30778;53.574;7.770;2024-02-14T06:46:55;4.20;;;2.63;;
45039;SDS011;30778;53.574;7.770;2024-02-14T06:49:20;2.80;;;2.40;;
45039;SDS011;30778;53.574;7.770;2024-02-14T06:51:46;4.75;;;2.50;;
45039;SDS011;30778;53.574;7.770;2024-02-14T06:54:11;4.72;;;2.53;;
45039;SDS011;30778;53.574;7.770;2024-02-14T06:56:40;4.35;;;2.38;;
45039;SDS011;30778;53.574;7.770;2024-02-14T06:59:05;3.67;;;2.65;;
45039;SDS011;30778;53.574;7.770;2024-02-14T07:01:31;4.05;;;2.53;;
45039;SDS011;30778;53.574;7.770;2024-02-14T07:03:57;3.15;;;2.17;;
45039;SDS011;30778;53.574;7.770;2024-02-14T07:06:23;4.05;;;2.22;;
45039;SDS011;30778;53.574;7.770;2024-02-14T07:08:49;3.25;;;1.92;;
45039;SDS011;30778;53.574;7.770;2024-02-14T07:11:14;2.95;;;1.85;;
45039;SDS011;30778;53.574;7.770;2024-02-14T07:13:41;4.38;;;2.08;;
45039;SDS011;30778;53.574;7.770;2024-02-14T07:16:07;2.88;;;1.60;;
45039;SDS011;30778;53.574;7.770;2024-02-14T07:18:33;2.67;;;1.42;;
45039;SDS011;30778;53.574;7.770;2024-02-14T07:20:59;2.35;;;1.40;;
45039;SDS011;30778;53.574;7.770;2024-02-14T07:23:24;2.17;;;1.10;;
45039;SDS011;30778;53.574;7.770;2024-02-14T07:25:51;2.35;;;1.10;;
45039;SDS011;30778;53.574;7.770;2024-02-14T07:28:17;2.70;;;1.63;;
45039;SDS011;30778;53.574;7.770;2024-02-14T07:30:43;4.32;;;1.77;;
45039;SDS011;30778;53.574;7.770;2024-02-14T07:33:09;2.90;;;1.17;;
45039;SDS011;30778;53.574;7.770;2024-02-14T07:35:34;4.82;;;1.58;;
45039;SDS011;30778;53.574;7.770;2024-02-14T07:38:01;2.75;;;1.52;;
45039;SDS011;30778;53.574;7.770;2024-02-14T07:40:27;5.68;;;1.23;;
45039;SDS011;30778;53.574;7.770;2024-02-14T07:42:56;3.67;;;1.60;;
45039;SDS011;30778;53.574;7.770;2024-02-14T07:45:22;2.55;;;1.45;;
45039;SDS011;30778;53.574;7.770;2024-02-14T07:47:51;2.78;;;1.27;;
45039;SDS011;30778;53.574;7.770;2024-02-14T07:50:17;4.00;;;2.33;;
45039;SDS011;30778;53.574;7.770;2024-02-14T07:52:43;4.80;;;2.08;;
45039;SDS011;30778;53.574;7.770;2024-02-14T07:55:11;3.20;;;1.85;;
45039;SDS011;30778;53.574;7.770;2024-02-14T07:57:41;3.75;;;2.40;;
45039;SDS011;30778;53.574;7.770;2024-02-14T08:00:07;3.28;;;1.90;;
45039;SDS011;30778;53.574;7.770;2024-02-14T08:02:34;3.85;;;2.53;;
45039;SDS011;30778;53.574;7.770;2024-02-14T08:05:01;3.13;;;2.00;;
45039;SDS011;30778;53.574;7.770;2024-02-14T08:07:27;2.88;;;2.10;;
45039;SDS011;30778;53.574;7.770;2024-02-14T08:09:56;4.18;;;2.03;;
45039;SDS011;30778;53.574;7.770;2024-02-14T08:12:22;6.45;;;2.97;;
45039;SDS011;30778;53.574;7.770;2024-02-14T08:14:48;4.05;;;2.33;;
45039;SDS011;30778;53.574;7.770;2024-02-14T08:17:13;3.00;;;1.75;;
45039;SDS011;30778;53.574;7.770;2024-02-14T08:19:39;3.88;;;2.13;;
45039;SDS011;30778;53.574;7.770;2024-02-14T08:22:04;4.43;;;2.33;;
45039;SDS011;30778;53.574;7.770;2024-02-14T08:24:31;2.95;;;1.65;;
45039;SDS011;30778;53.574;7.770;2024-02-14T08:26:56;4.15;;;2.22;;
45039;SDS011;30778;53.574;7.770;2024-02-14T08:29:22;2.45;;;1.52;;
45039;SDS011;30778;53.574;7.770;2024-02-14T08:31:52;2.50;;;1.35;;
45039;SDS011;30778;53.574;7.770;2024-02-14T08:34:20;2.10;;;1.50;;
45039;SDS011;30778;53.574;7.770;2024-02-14T08:36:46;2.70;;;1.63;;
45039;SDS011;30778;53.574;7.770;2024-02-14T08:39:13;2.63;;;1.58;;
45039;SDS011;30778;53.574;7.770;2024-02-14T08:41:40;2.20;;;1.35;;
45039;SDS011;30778;53.574;7.770;2024-02-14T08:44:07;3.53;;;1.73;;
45039;SDS011;30778;53.574;7.770;2024-02-14T08:46:32;2.78;;;1.40;;
45039;SDS011;30778;53.574;7.770;2024-02-14T08:49:00;4.22;;;1.40;;
45039;SDS011;30778;53.574;7.770;2024-02-14T08:51:28;2.75;;;1.65;;
45039;SDS011;30778;53.574;7.770;2024-02-14T08:53:53;2.90;;;1.67;;
45039;SDS011;30778;53.574;7.770;2024-02-14T08:56:20;3.03;;;1.92;;
45039;SDS011;30778;53.574;7.770;2024-02-14T08:58:47;1.90;;;1.30;;
45039;SDS011;30778;53.574;7.770;2024-02-14T09:01:13;2.97;;;1.33;;
45039;SDS011;30778;53.574;7.770;2024-02-14T09:03:41;2.10;;;0.90;;
45039;SDS011;30778;53.574;7.770;2024-02-14T09:06:08;2.97;;;1.70;;
45039;SDS011;30778;53.574;7.770;2024-02-14T09:08:34;3.08;;;1.40;;
45039;SDS011;30778;53.574;7.770;2024-02-14T09:11:00;3.58;;;1.55;;
45039;SDS011;30778;53.574;7.770;2024-02-14T09:13:25;2.15;;;1.48;;
45039;SDS011;30778;53.574;7.770;2024-02-14T09:15:52;2.95;;;1.70;;
45039;SDS011;30778;53.574;7.770;2024-02-14T09:18:19;2.30;;;1.40;;
45039;SDS011;30778;53.574;7.770;2024-02-14T09:20:44;1.98;;;1.23;;
45039;SDS011;30778;53.574;7.770;2024-02-14T09:23:12;3.22;;;1.65;;
45039;SDS011;30778;53.574;7.770;2024-02-14T09:25:39;6.70;;;2.42;;
45039;SDS011;30778;53.574;7.770;2024-02-14T09:28:05;3.80;;;2.20;;
45039;SDS011;30778;53.574;7.770;2024-02-14T09:30:32;7.75;;;2.95;;
45039;SDS011;30778;53.574;7.770;2024-02-14T09:32:58;6.50;;;2.78;;
45039;SDS011;30778;53.574;7.770;2024-02-14T09:35:31;6.90;;;3.28;;
45039;SDS011;30778;53.574;7.770;2024-02-14T09:37:57;8.48;;;3.25;;
45039;SDS011;30778;53.574;7.770;2024-02-14T09:40:22;9.23;;;3.58;;
45039;SDS011;30778;53.574;7.770;2024-02-14T09:42:54;12.55;;;3.75;;
45039;SDS011;30778;53.574;7.770;2024-02-14T09:45:22;17.27;;;5.18;;
45039;SDS011;30778;53.574;7.770;2024-02-14T09:47:51;10.75;;;3.47;;
45039;SDS011;30778;53.574;7.770;2024-02-14T09:50:18;11.52;;;3.33;;
45039;SDS011;30778;53.574;7.770;2024-02-14T09:52:48;13.48;;;4.40;;
45039;SDS011;30778;53.574;7.770;2024-02-14T09:55:15;10.57;;;3.97;;
45039;SDS011;30778;53.574;7.770;2024-02-14T09:57:42;13.07;;;3.83;;
45039;SDS011;30778;53.574;7.770;2024-02-14T10:00:09;20.30;;;4.53;;
45039;SDS011;30778;53.574;7.770;2024-02-14T10:02:36;10.25;;;2.88;;
45039;SDS011;30778;53.574;7.770;2024-02-14T10:05:01;7.80;;;2.45;;
45039;SDS011;30778;53.574;7.770;2024-02-14T10:07:27;13.38;;;2.67;;
45039;SDS011;30778;53.574;7.770;2024-02-14T10:09:53;17.90;;;3.15;;
45039;SDS011;30778;53.574;7.770;2024-02-14T10:12:22;5.95;;;2.97;;
45039;SDS011;30778;53.574;7.770;2024-02-14T10:14:47;6.63;;;3.30;;
45039;SDS011;30778;53.574;7.770;2024-02-14T10:17:19;10.43;;;3.40;;
45039;SDS011;30778;53.574;7.770;2024-02-14T10:19:54;13.98;;;3.00;;
45039;SDS011;30778;53.574;7.770;2024-02-14T10:22:20;14.20;;;3.17;;
45039;SDS011;30778;53.574;7.770;2024-02-14T10:24:46;16.80;;;3.20;;
45039;SDS011;30778;53.574;7.770;2024-02-14T10:27:11;8.15;;;3.42;;
45039;SDS011;30778;53.574;7.770;2024-02-14T10:29:37;7.45;;;2.78;;
45039;SDS011;30778;53.574;7.770;2024-02-14T10:32:02;11.20;;;3.72;;
45039;SDS011;30778;53.574;7.770;2024-02-14T10:34:28;14.63;;;4.35;;
45039;SDS011;30778;53.574;7.770;2024-02-14T10:36:56;14.50;;;2.85;;
45039;SDS011;30778;53.574;7.770;2024-02-14T10:39:23;12.50;;;3.60;;
45039;SDS011;30778;53.574;7.770;2024-02-14T10:41:50;16.02;;;4.05;;
45039;SDS011;30778;53.574;7.770;2024-02-14T10:44:16;16.00;;;4.47;;
45039;SDS011;30778;53.574;7.770;2024-02-14T10:46:44;16.88;;;3.53;;
45039;SDS011;30778;53.574;7.770;2024-02-14T10:49:12;18.10;;;4.47;;
45039;SDS011;30778;53.574;7.770;2024-02-14T10:51:44;18.77;;;3.95;;
45039;SDS011;30778;53.574;7.770;2024-02-14T10:54:19;15.57;;;3.50;;
45039;SDS011;30778;53.574;7.770;2024-02-14T10:56:49;18.88;;;4.82;;
45039;SDS011;30778;53.574;7.770;2024-02-14T10:59:20;13.27;;;4.65;;
45039;SDS011;30778;53.574;7.770;2024-02-14T11:01:49;14.52;;;5.07;;
45039;SDS011;30778;53.574;7.770;2024-02-14T11:04:15;14.80;;;5.43;;
45039;SDS011;30778;53.574;7.770;2024-02-14T11:06:47;16.48;;;6.05;;
45039;SDS011;30778;53.574;7.770;2024-02-14T11:09:14;17.70;;;7.13;;
45039;SDS011;30778;53.574;7.770;2024-02-14T11:11:42;20.60;;;6.38;;
45039;SDS011;30778;53.574;7.770;2024-02-14T11:14:17;24.15;;;5.88;;
45039;SDS011;30778;53.574;7.770;2024-02-14T11:16:47;19.70;;;5.80;;
45039;SDS011;30778;53.574;7.770;2024-02-14T11:19:13;22.50;;;6.60;;
45039;SDS011;30778;53.574;7.770;2024-02-14T11:21:41;21.35;;;6.05;;
45039;SDS011;30778;53.574;7.770;2024-02-14T11:24:09;13.55;;;6.75;;
45039;SDS011;30778;53.574;7.770;2024-02-14T11:26:39;22.27;;;6.00;;
45039;SDS011;30778;53.574;7.770;2024-02-14T11:29:13;15.82;;;5.30;;
45039;SDS011;30778;53.574;7.770;2024-02-14T11:31:41;15.30;;;5.80;;
45039;SDS011;30778;53.574;7.770;2024-02-14T11:34:08;19.92;;;7.63;;
45039;SDS011;30778;53.574;7.770;2024-02-14T11:36:37;19.00;;;7.38;;
45039;SDS011;30778;53.574;7.770;2024-02-14T11:39:04;14.00;;;5.85;;
45039;SDS011;30778;53.574;7.770;2024-02-14T11:41:32;15.68;;;6.30;;
45039;SDS011;30778;53.574;7.770;2024-02-14T11:44:03;15.80;;;6.60;;
45039;SDS011;30778;53.574;7.770;2024-02-14T11:46:30;16.02;;;7.00;;
45039;SDS011;30778;53.574;7.770;2024-02-14T11:48:57;14.57;;;7.25;;
45039;SDS011;30778;53.574;7.770;2024-02-14T11:51:26;12.40;;;5.72;;
45039;SDS011;30778;53.574;7.770;2024-02-14T11:53:55;14.93;;;6.63;;
45039;SDS011;30778;53.574;7.770;2024-02-14T11:56:32;11.82;;;5.50;;
45039;SDS011;30778;53.574;7.770;2024-02-14T11:58:59;14.52;;;6.93;;
45039;SDS011;30778;53.574;7.770;2024-02-14T12:01:28;13.25;;;7.15;;
45039;SDS011;30778;53.574;7.770;2024-02-14T12:03:56;12.80;;;6.18;;
45039;SDS011;30778;53.574;7.770;2024-02-14T12:06:30;11.35;;;5.07;;
45039;SDS011;30778;53.574;7.770;2024-02-14T12:08:57;12.07;;;5.60;;
45039;SDS011;30778;53.574;7.770;2024-02-14T12:11:33;10.23;;;5.28;;
45039;SDS011;30778;53.574;7.770;2024-02-14T12:14:05;12.68;;;5.00;;
45039;SDS011;30778;53.574;7.770;2024-02-14T12:16:31;11.40;;;4.82;;
45039;SDS011;30778;53.574;7.770;2024-02-14T12:19:05;10.00;;;4.95;;
45039;SDS011;30778;53.574;7.770;2024-02-14T12:21:48;7.50;;;3.80;;
45039;SDS011;30778;53.574;7.770;2024-02-14T12:24:16;7.97;;;5.25;;
45039;SDS011;30778;53.574;7.770;2024-02-14T12:26:42;13.18;;;5.20;;
45039;SDS011;30778;53.574;7.770;2024-02-14T12:29:10;7.43;;;4.03;;
45039;SDS011;30778;53.574;7.770;2024-02-14T12:31:38;6.78;;;3.42;;
45039;SDS011;30778;53.574;7.770;2024-02-14T12:34:04;4.93;;;3.58;;
45039;SDS011;30778;53.574;7.770;2024-02-14T12:36:32;8.57;;;3.63;;
45039;SDS011;30778;53.574;7.770;2024-02-14T12:38:59;5.50;;;3.10;;
45039;SDS011;30778;53.574;7.770;2024-02-14T12:41:29;3.58;;;2.83;;
45039;SDS011;30778;53.574;7.770;2024-02-14T12:43:57;8.70;;;3.45;;
45039;SDS011;30778;53.574;7.770;2024-02-14T12:46:24;4.28;;;2.80;;
45039;SDS011;30778;53.574;7.770;2024-02-14T12:48:49;6.72;;;3.50;;
45039;SDS011;30778;53.574;7.770;2024-02-14T12:51:18;10.07;;;3.47;;
45039;SDS011;30778;53.574;7.770;2024-02-14T12:53:45;4.95;;;2.33;;
45039;SDS011;30778;53.574;7.770;2024-02-14T12:56:14;4.90;;;2.25;;
45039;SDS011;30778;53.574;7.770;2024-02-14T12:58:40;4.07;;;2.08;;
45039;SDS011;30778;53.574;7.770;2024-02-14T13:01:09;3.80;;;1.33;;
45039;SDS011;30778;53.574;7.770;2024-02-14T13:03:37;2.47;;;1.70;;
45039;SDS011;30778;53.574;7.770;2024-02-14T13:06:04;3.10;;;2.15;;
45039;SDS011;30778;53.574;7.770;2024-02-14T13:08:30;4.35;;;1.40;;
45039;SDS011;30778;53.574;7.770;2024-02-14T13:10:56;3.33;;;1.30;;
45039;SDS011;30778;53.574;7.770;2024-02-14T13:13:22;4.32;;;1.25;;
45039;SDS011;30778;53.574;7.770;2024-02-14T13:15:47;2.40;;;1.40;;
45039;SDS011;30778;53.574;7.770;2024-02-14T13:18:13;4.13;;;1.50;;
45039;SDS011;30778;53.574;7.770;2024-02-14T13:20:39;2.50;;;1.30;;
45039;SDS011;30778;53.574;7.770;2024-02-14T13:23:04;2.78;;;0.73;;
45039;SDS011;30778;53.574;7.770;2024-02-14T13:25:34;1.58;;;0.98;;
45039;SDS011;30778;53.574;7.770;2024-02-14T13:28:01;2.65;;;0.93;;
45039;SDS011;30778;53.574;7.770;2024-02-14T13:30:27;3.15;;;1.10;;
45039;SDS011;30778;53.574;7.770;2024-02-14T13:32:54;1.98;;;0.73;;
45039;SDS011;30778;53.574;7.770;2024-02-14T13:35:21;2.30;;;0.93;;
45039;SDS011;30778;53.574;7.770;2024-02-14T13:37:46;1.70;;;1.17;;
45039;SDS011;30778;53.574;7.770;2024-02-14T13:40:12;2.72;;;0.98;;
45039;SDS011;30778;53.574;7.770;2024-02-14T13:42:38;3.20;;;1.63;;
45039;SDS011;30778;53.574;7.770;2024-02-14T13:45:04;2.90;;;1.60;;
45039;SDS011;30778;53.574;7.770;2024-02-14T13:47:38;2.58;;;1.23;;
45039;SDS011;30778;53.574;7.770;2024-02-14T13:50:04;2.30;;;1.02;;
45039;SDS011;30778;53.574;7.770;2024-02-14T13:52:30;3.38;;;1.80;;
45039;SDS011;30778;53.574;7.770;2024-02-14T13:54:56;3.47;;;2.05;;
45039;SDS011;30778;53.574;7.770;2024-02-14T13:57:22;2.83;;;1.48;;
45039;SDS011;30778;53.574;7.770;2024-02-14T13:59:47;3.60;;;1.83;;
45039;SDS011;30778;53.574;7.770;2024-02-14T14:02:13;3.30;;;1.75;;
45039;SDS011;30778;53.574;7.770;2024-02-14T14:04:38;3.75;;;2.42;;
45039;SDS011;30778;53.574;7.770;2024-02-14T14:07:04;4.53;;;2.78;;
45039;SDS011;30778;53.574;7.770;2024-02-14T14:09:29;5.45;;;2.45;;
45039;SDS011;30778;53.574;7.770;2024-02-14T14:11:58;3.20;;;2.22;;
45039;SDS011;30778;53.574;7.770;2024-02-14T14:14:23;3.45;;;2.38;;
45039;SDS011;30778;53.574;7.770;2024-02-14T14:16:52;3.95;;;2.60;;
45039;SDS011;30778;53.574;7.770;2024-02-14T14:19:18;5.93;;;3.58;;
45039;SDS011;30778;53.574;7.770;2024-02-14T14:21:44;6.22;;;4.10;;
45039;SDS011;30778;53.574;7.770;2024-02-14T14:24:10;6.13;;;3.92;;
45039;SDS011;30778;53.574;7.770;2024-02-14T14:26:35;4.55;;;3.10;;
45039;SDS011;30778;53.574;7.770;2024-02-14T14:29:01;5.25;;;3.20;;
45039;SDS011;30778;53.574;7.770;2024-02-14T14:31:27;6.05;;;2.85;;
45039;SDS011;30778;53.574;7.770;2024-02-14T14:33:52;7.53;;;4.45;;
45039;SDS011;30778;53.574;7.770;2024-02-14T14:36:19;7.28;;;5.10;;
45039;SDS011;30778;53.574;7.770;2024-02-14T14:38:45;6.20;;;4.45;;
45039;SDS011;30778;53.574;7.770;2024-02-14T14:41:12;8.70;;;4.00;;
45039;SDS011;30778;53.574;7.770;2024-02-14T14:43:37;6.47;;;4.85;;